createdAt,value
2023-06-21T00:00:24.147Z,24.42
2023-06-21T00:02:52.580Z,24.39
2023-06-21T00:05:20.250Z,24.33
2023-06-21T00:07:49.155Z,24.32
2023-06-21T00:10:16.697Z,24.23
2023-06-21T00:12:44.138Z,24.34
2023-06-21T00:15:11.778Z,24.33
2023-06-21T00:17:39.330Z,24.26
2023-06-21T00:20:10.234Z,24.24
2023-06-21T00:22:38.763Z,24.13
2023-06-21T00:25:08.146Z,24.07
2023-06-21T00:27:38.827Z,24.15
2023-06-21T00:30:06.856Z,24.13
2023-06-21T00:32:34.673Z,24.33
2023-06-21T00:35:02.136Z,24.28
2023-06-21T00:37:29.895Z,24.30
2023-06-21T00:39:57.311Z,24.14
2023-06-21T00:42:26.435Z,24.03
2023-06-21T00:44:53.928Z,24.00
2023-06-21T00:47:21.581Z,23.95
2023-06-21T00:49:49.178Z,23.93
2023-06-21T00:52:18.585Z,24.13
2023-06-21T00:54:46.711Z,24.02
2023-06-21T00:57:15.264Z,24.04
2023-06-21T00:59:42.843Z,24.05
2023-06-21T01:02:10.528Z,23.98
2023-06-21T01:04:38.017Z,23.98
2023-06-21T01:07:21.315Z,23.98
2023-06-21T01:10:19.596Z,23.94
2023-06-21T01:13:08.353Z,23.94
2023-06-21T01:15:45.276Z,23.83
2023-06-21T01:18:17.032Z,23.88
2023-06-21T01:20:52.466Z,23.72
2023-06-21T01:23:39.792Z,23.60
2023-06-21T01:26:07.942Z,23.72
2023-06-21T01:29:09.224Z,23.62
2023-06-21T01:31:40.288Z,23.60
2023-06-21T01:34:09.935Z,23.54
2023-06-21T01:36:40.927Z,23.68
2023-06-21T01:39:10.835Z,23.82
2023-06-21T01:41:40.063Z,23.77
2023-06-21T01:44:10.724Z,23.67
2023-06-21T01:46:39.868Z,23.59
2023-06-21T01:49:10.950Z,23.55
2023-06-21T01:51:41.452Z,23.50
2023-06-21T01:54:27.054Z,23.36
2023-06-21T01:57:00.744Z,23.34
2023-06-21T01:59:30.102Z,23.34
2023-06-21T02:02:04.580Z,23.50
2023-06-21T02:04:34.547Z,23.45
2023-06-21T02:07:03.680Z,23.53
2023-06-21T02:09:32.279Z,23.40
2023-06-21T02:12:01.470Z,23.40
2023-06-21T02:14:29.666Z,23.36
2023-06-21T02:16:57.079Z,23.28
2023-06-21T02:19:26.220Z,23.45
2023-06-21T02:21:53.782Z,23.33
2023-06-21T02:24:21.323Z,23.35
2023-06-21T02:26:49.604Z,23.28
2023-06-21T02:29:17.076Z,23.22
2023-06-21T02:31:44.606Z,23.16
2023-06-21T02:34:15.092Z,23.08
2023-06-21T02:36:48.959Z,23.00
2023-06-21T02:39:16.550Z,23.02
2023-06-21T02:41:43.984Z,22.91
2023-06-21T02:44:13.223Z,22.77
2023-06-21T02:46:40.706Z,22.83
2023-06-21T02:49:08.406Z,22.85
2023-06-21T02:51:37.628Z,22.88
2023-06-21T02:54:05.402Z,22.84
2023-06-21T02:56:32.976Z,22.90
2023-06-21T02:59:00.696Z,22.93
2023-06-21T03:01:28.194Z,22.92
2023-06-21T03:03:56.458Z,23.07
2023-06-21T03:06:24.873Z,23.09
2023-06-21T03:08:52.763Z,23.12
2023-06-21T03:11:20.188Z,23.17
2023-06-21T03:13:48.812Z,22.88
2023-06-21T03:16:16.800Z,22.86
2023-06-21T03:18:44.548Z,22.76
2023-06-21T03:21:11.937Z,22.77
2023-06-21T03:23:40.261Z,22.69
2023-06-21T03:26:08.894Z,22.64
2023-06-21T03:28:36.468Z,22.62
2023-06-21T03:31:04.463Z,22.52
2023-06-21T03:33:32.671Z,22.53
2023-06-21T03:36:00.351Z,22.52
2023-06-21T03:38:27.971Z,22.46
2023-06-21T03:40:55.677Z,22.47
2023-06-21T03:43:23.303Z,22.55
2023-06-21T03:45:52.158Z,22.49
2023-06-21T03:48:19.671Z,22.51
2023-06-21T03:50:47.415Z,22.60
2023-06-21T03:53:14.963Z,22.56
2023-06-21T03:55:44.512Z,22.57
2023-06-21T03:58:13.716Z,22.64
2023-06-21T04:00:41.263Z,22.73
2023-06-21T04:03:08.894Z,22.83
2023-06-21T04:05:36.485Z,22.89
2023-06-21T04:08:06.138Z,22.97
2023-06-21T04:10:34.800Z,22.93
2023-06-21T04:13:02.238Z,22.96
2023-06-21T04:15:31.330Z,22.99
2023-06-21T04:18:01.274Z,23.01
2023-06-21T04:20:29.016Z,22.95
2023-06-21T04:22:56.730Z,23.01
2023-06-21T04:25:24.226Z,23.08
2023-06-21T04:27:51.712Z,23.13
2023-06-21T04:30:19.998Z,23.24
2023-06-21T04:32:48.318Z,23.25
2023-06-21T04:35:17.587Z,23.21
2023-06-21T04:37:46.739Z,23.20
2023-06-21T04:40:19.796Z,23.02
2023-06-21T04:42:49.062Z,23.13
2023-06-21T04:45:17.797Z,23.17
2023-06-21T04:47:49.180Z,23.35
2023-06-21T04:52:50.010Z,23.47
2023-06-21T04:55:21.786Z,23.47
2023-06-21T04:57:49.836Z,23.48
2023-06-21T05:00:18.769Z,23.62
2023-06-21T05:02:48.695Z,23.59
2023-06-21T05:05:16.859Z,23.53
2023-06-21T05:07:44.456Z,23.53
2023-06-21T05:10:12.160Z,23.31
2023-06-21T05:12:39.790Z,23.25
2023-06-21T05:15:07.782Z,23.24
2023-06-21T05:17:35.878Z,23.30
2023-06-21T05:20:05.072Z,23.07
2023-06-21T05:22:33.122Z,23.07
2023-06-21T05:25:03.280Z,23.24
2023-06-21T05:27:33.850Z,23.39
2023-06-21T05:30:01.310Z,23.48
2023-06-21T05:32:29.742Z,23.60
2023-06-21T05:34:57.284Z,23.68
2023-06-21T05:37:24.810Z,23.71
2023-06-21T05:39:52.400Z,23.79
2023-06-21T05:42:19.994Z,23.82
2023-06-21T05:44:47.477Z,23.88
2023-06-21T05:47:15.562Z,23.88
2023-06-21T05:49:43.462Z,24.15
2023-06-21T05:52:11.044Z,24.79
2023-06-21T05:54:42.825Z,25.40
2023-06-21T05:57:10.762Z,25.87
2023-06-21T06:00:12.970Z,25.97
2023-06-21T06:02:42.932Z,25.66
2023-06-21T06:05:10.962Z,25.58
2023-06-21T06:07:39.125Z,25.78
2023-06-21T06:10:06.960Z,25.63
2023-06-21T06:12:34.888Z,25.53
2023-06-21T06:15:02.719Z,25.51
2023-06-21T06:17:31.508Z,25.51
2023-06-21T06:19:59.077Z,25.47
2023-06-21T06:22:26.694Z,25.58
2023-06-21T06:24:54.589Z,25.62
2023-06-21T06:27:21.942Z,25.77
2023-06-21T06:29:49.376Z,26.01
2023-06-21T06:32:16.912Z,26.61
2023-06-21T06:34:44.309Z,26.79
2023-06-21T06:37:15.515Z,26.99
2023-06-21T06:39:45.329Z,27.08
2023-06-21T06:42:12.789Z,26.82
2023-06-21T06:44:41.725Z,26.65
2023-06-21T06:47:09.174Z,26.59
2023-06-21T06:49:36.667Z,26.24
2023-06-21T06:52:04.504Z,25.93
2023-06-21T06:54:32.057Z,25.93
2023-06-21T06:56:59.427Z,26.03
2023-06-21T06:59:29.222Z,26.02
2023-06-21T07:02:05.048Z,26.06
2023-06-21T07:04:32.711Z,25.91
2023-06-21T07:07:02.301Z,26.03
2023-06-21T07:09:29.800Z,26.09
2023-06-21T07:12:00.557Z,26.11
2023-06-21T07:14:28.790Z,26.12
2023-06-21T07:16:56.325Z,26.17
2023-06-21T07:19:23.846Z,26.23
2023-06-21T07:21:51.532Z,26.30
2023-06-21T07:24:19.049Z,26.46
2023-06-21T07:26:46.485Z,26.42
2023-06-21T07:29:14.028Z,26.56
2023-06-21T07:31:41.411Z,26.44
2023-06-21T07:34:10.791Z,26.48
2023-06-21T07:36:41.367Z,26.56
2023-06-21T07:39:09.576Z,26.60
2023-06-21T07:41:38.045Z,26.71
2023-06-21T07:44:05.597Z,26.67
2023-06-21T07:46:33.181Z,26.59
2023-06-21T07:49:00.680Z,26.71
2023-06-21T07:51:28.148Z,26.87
2023-06-21T07:53:55.946Z,27.02
2023-06-21T07:56:23.486Z,27.08
2023-06-21T07:58:50.976Z,27.20
2023-06-21T08:01:18.456Z,27.30
2023-06-21T08:03:46.027Z,27.43
2023-06-21T08:06:13.581Z,27.65
2023-06-21T08:08:41.635Z,27.61
2023-06-21T08:11:09.874Z,27.57
2023-06-21T08:13:37.392Z,27.74
2023-06-21T08:16:05.222Z,27.81
2023-06-21T08:18:32.600Z,27.87
2023-06-21T08:21:00.559Z,28.04
2023-06-21T08:23:28.013Z,28.08
2023-06-21T08:25:55.491Z,28.19
2023-06-21T08:28:22.991Z,28.35
2023-06-21T08:30:51.138Z,28.35
2023-06-21T08:33:18.706Z,28.32
2023-06-21T08:35:46.188Z,28.38
2023-06-21T08:38:27.415Z,28.60
2023-06-21T08:41:03.251Z,28.70
2023-06-21T08:43:31.068Z,28.63
2023-06-21T08:46:07.675Z,28.74
2023-06-21T08:48:37.596Z,28.66
2023-06-21T08:51:06.130Z,28.86
2023-06-21T08:53:51.101Z,29.05
2023-06-21T08:56:24.241Z,29.19
2023-06-21T08:59:01.302Z,29.27
2023-06-21T09:01:32.612Z,29.34
2023-06-21T09:04:05.310Z,29.51
2023-06-21T09:06:33.437Z,29.56
2023-06-21T09:09:01.044Z,29.49
2023-06-21T09:11:29.038Z,29.70
2023-06-21T09:13:57.042Z,29.59
2023-06-21T09:16:24.673Z,29.80
2023-06-21T09:18:52.389Z,29.99
2023-06-21T09:21:19.968Z,29.93
2023-06-21T09:23:47.412Z,29.92
2023-06-21T09:26:15.629Z,29.98
2023-06-21T09:28:44.763Z,30.17
2023-06-21T09:31:13.644Z,30.17
2023-06-21T09:33:43.767Z,30.23
2023-06-21T09:36:12.662Z,30.27
2023-06-21T09:38:40.119Z,30.23
2023-06-21T09:41:12.865Z,30.25
2023-06-21T09:43:44.004Z,30.35
2023-06-21T09:46:14.052Z,30.54
2023-06-21T09:48:42.261Z,30.69
2023-06-21T09:51:12.609Z,30.62
2023-06-21T09:53:45.781Z,30.67
2023-06-21T09:56:17.540Z,30.73
2023-06-21T09:58:45.808Z,30.74
2023-06-21T10:01:17.208Z,30.52
2023-06-21T10:03:46.615Z,30.46
2023-06-21T10:06:20.365Z,30.51
2023-06-21T10:08:52.669Z,30.53
2023-06-21T10:11:21.359Z,30.52
2023-06-21T10:13:49.457Z,30.63
2023-06-21T10:16:19.946Z,30.48
2023-06-21T10:18:48.922Z,30.72
2023-06-21T10:21:18.867Z,30.65
2023-06-21T10:23:50.387Z,30.80
2023-06-21T10:26:21.063Z,30.58
2023-06-21T10:28:54.410Z,30.58
2023-06-21T10:31:22.929Z,30.61
2023-06-21T10:33:51.295Z,30.46
2023-06-21T10:36:26.673Z,30.53
2023-06-21T10:39:03.450Z,30.68
2023-06-21T10:41:31.505Z,30.80
2023-06-21T10:44:00.593Z,30.84
2023-06-21T10:46:28.529Z,30.95
2023-06-21T10:48:57.121Z,31.06
2023-06-21T10:51:25.037Z,30.90
2023-06-21T10:53:55.139Z,30.83
2023-06-21T10:56:24.725Z,30.72
2023-06-21T10:58:52.199Z,30.68
2023-06-21T11:01:22.240Z,30.61
2023-06-21T11:03:51.045Z,30.52
2023-06-21T11:06:33.420Z,30.72
2023-06-21T11:09:12.147Z,30.89
2023-06-21T11:11:49.821Z,30.91
2023-06-21T11:14:22.366Z,30.91
2023-06-21T11:17:05.581Z,30.98
2023-06-21T11:19:33.107Z,30.93
2023-06-21T11:22:15.067Z,30.54
2023-06-21T11:25:10.259Z,30.77
2023-06-21T11:27:38.205Z,30.99
2023-06-21T11:30:24.931Z,30.88
2023-06-21T11:32:57.401Z,30.83
2023-06-21T11:35:47.935Z,31.05
2023-06-21T11:38:15.436Z,31.03
2023-06-21T11:40:43.283Z,31.06
2023-06-21T11:43:16.818Z,31.05
2023-06-21T11:45:57.006Z,31.03
2023-06-21T11:48:28.253Z,31.06
2023-06-21T11:50:57.676Z,31.17
2023-06-21T11:53:30.751Z,31.26
2023-06-21T11:56:01.599Z,31.28
2023-06-21T11:58:30.353Z,31.39
2023-06-21T12:00:58.996Z,31.42
2023-06-21T12:03:27.236Z,31.32
2023-06-21T12:06:02.255Z,31.31
2023-06-21T12:08:31.766Z,31.33
2023-06-21T12:11:01.356Z,31.41
2023-06-21T12:13:30.994Z,31.41
2023-06-21T12:16:06.482Z,31.49
2023-06-21T12:18:36.002Z,31.26
2023-06-21T12:21:05.573Z,31.29
2023-06-21T12:23:33.122Z,31.32
2023-06-21T12:26:02.868Z,31.35
2023-06-21T12:28:32.444Z,31.32
2023-06-21T12:31:10.220Z,31.26
2023-06-21T12:33:42.142Z,31.27
2023-06-21T12:36:19.841Z,31.39
2023-06-21T12:39:07.438Z,31.35
2023-06-21T12:41:36.096Z,31.40
2023-06-21T12:44:07.415Z,31.45
2023-06-21T12:46:40.860Z,31.51
2023-06-21T12:49:08.282Z,31.50
2023-06-21T12:51:39.332Z,31.53
2023-06-21T12:54:08.831Z,31.54
2023-06-21T12:57:02.528Z,31.55
2023-06-21T12:59:30.263Z,31.49
2023-06-21T13:01:59.030Z,31.51
2023-06-21T13:04:26.626Z,31.38
2023-06-21T13:06:54.224Z,31.41
2023-06-21T13:09:22.538Z,31.34
2023-06-21T13:11:49.937Z,31.33
2023-06-21T13:14:17.327Z,31.31
2023-06-21T13:16:44.771Z,31.32
2023-06-21T13:19:12.174Z,31.35
2023-06-21T13:21:39.636Z,31.45
2023-06-21T13:24:07.125Z,31.41
2023-06-21T13:26:34.652Z,31.45
2023-06-21T13:29:02.023Z,31.49
2023-06-21T13:31:29.437Z,31.55
2023-06-21T13:33:56.827Z,31.48
2023-06-21T13:36:24.472Z,31.55
2023-06-21T13:38:52.119Z,31.55
2023-06-21T13:41:19.814Z,31.54
2023-06-21T13:43:48.738Z,31.59
2023-06-21T13:46:16.525Z,31.67
2023-06-21T13:48:43.973Z,31.70
2023-06-21T13:51:11.666Z,31.76
2023-06-21T13:53:39.331Z,31.84
2023-06-21T13:56:06.746Z,31.99
2023-06-21T13:58:34.195Z,32.10
2023-06-21T14:01:01.632Z,32.06
2023-06-21T14:03:30.170Z,32.04
2023-06-21T14:05:58.198Z,32.18
2023-06-21T14:08:25.759Z,32.01
2023-06-21T14:10:53.321Z,32.01
2023-06-21T14:13:22.738Z,31.94
2023-06-21T14:15:50.604Z,31.97
2023-06-21T14:18:18.655Z,31.98
2023-06-21T14:20:46.548Z,31.86
2023-06-21T14:23:14.090Z,31.83
2023-06-21T14:25:44.829Z,31.85
2023-06-21T14:28:13.984Z,31.82
2023-06-21T14:30:41.581Z,31.86
2023-06-21T14:33:09.215Z,31.90
2023-06-21T14:35:36.973Z,31.91
2023-06-21T14:38:08.723Z,31.80
2023-06-21T14:40:36.513Z,31.76
2023-06-21T14:43:04.021Z,31.79
2023-06-21T14:45:31.589Z,31.76
2023-06-21T14:47:59.943Z,31.86
2023-06-21T14:50:28.948Z,31.87
2023-06-21T14:52:56.810Z,31.85
2023-06-21T14:55:24.320Z,31.85
2023-06-21T14:57:54.422Z,31.72
2023-06-21T15:00:55.077Z,31.76
2023-06-21T15:03:22.594Z,31.89
2023-06-21T15:06:04.941Z,31.92
2023-06-21T15:08:33.499Z,31.87
2023-06-21T15:11:00.984Z,31.80
2023-06-21T15:13:28.462Z,31.82
2023-06-21T15:15:56.910Z,31.80
2023-06-21T15:18:24.332Z,31.66
2023-06-21T15:20:51.781Z,31.59
2023-06-21T15:23:19.267Z,31.62
2023-06-21T15:25:46.867Z,31.66
2023-06-21T15:28:14.330Z,31.58
2023-06-21T15:30:41.773Z,31.61
2023-06-21T15:33:11.094Z,31.59
2023-06-21T15:35:38.560Z,31.62
2023-06-21T15:38:06.013Z,31.59
2023-06-21T15:40:33.454Z,31.56
2023-06-21T15:43:00.865Z,31.57
2023-06-21T15:45:28.762Z,31.64
2023-06-21T15:47:56.580Z,31.66
2023-06-21T15:50:24.016Z,31.65
2023-06-21T15:52:52.887Z,31.63
2023-06-21T15:55:20.590Z,31.67
2023-06-21T15:57:49.090Z,31.66
2023-06-21T16:00:17.096Z,31.61
2023-06-21T16:02:47.009Z,31.60
2023-06-21T16:05:14.561Z,31.61
2023-06-21T16:07:41.971Z,31.63
2023-06-21T16:10:09.473Z,31.67
2023-06-21T16:12:37.329Z,31.65
2023-06-21T16:15:05.224Z,31.56
2023-06-21T16:17:32.716Z,31.55
2023-06-21T16:20:00.188Z,31.56
2023-06-21T16:22:27.600Z,31.64
2023-06-21T16:24:55.047Z,31.66
2023-06-21T16:27:23.652Z,31.62
2023-06-21T16:29:51.141Z,31.60
2023-06-21T16:32:18.501Z,31.49
2023-06-21T16:34:47.091Z,31.45
2023-06-21T16:37:14.613Z,31.44
2023-06-21T16:39:42.137Z,31.41
2023-06-21T16:42:09.792Z,31.39
2023-06-21T16:44:37.207Z,31.39
2023-06-21T16:47:04.915Z,31.37
2023-06-21T16:49:32.339Z,31.34
2023-06-21T16:51:59.843Z,31.32
2023-06-21T16:54:27.191Z,31.44
2023-06-21T16:57:02.397Z,31.40
2023-06-21T16:59:31.418Z,31.39
2023-06-21T17:01:59.238Z,31.39
2023-06-21T17:04:26.837Z,31.36
2023-06-21T17:06:54.208Z,31.33
2023-06-21T17:09:21.834Z,31.30
2023-06-21T17:11:50.146Z,31.24
2023-06-21T17:14:17.592Z,31.22
2023-06-21T17:16:45.088Z,31.21
2023-06-21T17:19:17.162Z,31.18
2023-06-21T17:21:44.639Z,31.15
2023-06-21T17:24:12.158Z,31.13
2023-06-21T17:26:39.717Z,31.12
2023-06-21T17:29:07.269Z,31.06
2023-06-21T17:31:34.780Z,31.03
2023-06-21T17:34:03.162Z,30.98
2023-06-21T17:36:30.510Z,30.96
2023-06-21T17:38:57.973Z,30.94
2023-06-21T17:41:25.458Z,30.88
2023-06-21T17:43:52.950Z,30.88
2023-06-21T17:46:20.363Z,30.85
2023-06-21T17:48:47.886Z,30.83
2023-06-21T17:51:16.317Z,30.81
2023-06-21T17:53:43.793Z,30.79
2023-06-21T17:56:11.168Z,30.74
2023-06-21T17:58:38.679Z,30.70
2023-06-21T18:01:06.167Z,30.66
2023-06-21T18:03:33.665Z,30.63
2023-06-21T18:06:01.228Z,30.59
2023-06-21T18:08:29.474Z,30.54
2023-06-21T18:10:58.888Z,30.51
2023-06-21T18:13:26.317Z,30.47
2023-06-21T18:15:54.357Z,30.44
2023-06-21T18:18:23.503Z,30.42
2023-06-21T18:20:52.306Z,30.36
2023-06-21T18:23:19.895Z,30.34
2023-06-21T18:25:47.316Z,30.29
2023-06-21T18:28:14.674Z,30.27
2023-06-21T18:30:42.152Z,30.24
2023-06-21T18:33:09.567Z,30.19
2023-06-21T18:35:40.318Z,30.17
2023-06-21T18:38:08.491Z,30.13
2023-06-21T18:40:36.790Z,30.10
2023-06-21T18:43:04.256Z,30.05
2023-06-21T18:45:31.662Z,29.98
2023-06-21T18:47:59.133Z,29.88
2023-06-21T18:50:26.746Z,29.85
2023-06-21T18:52:54.549Z,29.83
2023-06-21T18:55:22.846Z,29.77
2023-06-21T18:57:50.253Z,29.66
2023-06-21T19:00:17.718Z,29.60
2023-06-21T19:02:45.144Z,29.60
2023-06-21T19:05:12.711Z,29.55
2023-06-21T19:07:40.279Z,29.50
2023-06-21T19:10:10.011Z,29.48
2023-06-21T19:12:38.109Z,29.43
2023-06-21T19:15:07.039Z,29.38
2023-06-21T19:17:34.777Z,29.35
2023-06-21T19:20:02.529Z,29.30
2023-06-21T19:22:31.350Z,29.28
2023-06-21T19:24:58.981Z,29.24
2023-06-21T19:27:26.424Z,29.19
2023-06-21T19:29:53.829Z,29.13
2023-06-21T19:32:21.499Z,29.13
2023-06-21T19:34:49.516Z,29.11
2023-06-21T19:37:17.262Z,29.09
2023-06-21T19:39:45.560Z,29.07
2023-06-21T19:42:13.810Z,29.03
2023-06-21T19:44:41.976Z,28.96
2023-06-21T19:47:12.097Z,28.92
2023-06-21T19:49:41.057Z,28.93
2023-06-21T19:52:09.085Z,28.94
2023-06-21T19:54:36.435Z,28.93
2023-06-21T19:57:04.071Z,28.91
2023-06-21T19:59:31.743Z,28.87
2023-06-21T20:01:59.174Z,28.73
2023-06-21T20:04:26.661Z,28.69
2023-06-21T20:06:55.652Z,28.58
2023-06-21T20:09:23.069Z,28.63
2023-06-21T20:11:50.598Z,28.54
2023-06-21T20:14:18.113Z,28.49
2023-06-21T20:16:45.929Z,28.50
2023-06-21T20:19:16.028Z,28.39
2023-06-21T20:21:46.610Z,28.41
2023-06-21T20:24:14.753Z,28.32
2023-06-21T20:26:43.213Z,28.30
2023-06-21T20:29:10.651Z,28.31
2023-06-21T20:31:38.202Z,28.31
2023-06-21T20:34:05.889Z,28.23
2023-06-21T20:36:34.659Z,28.27
2023-06-21T20:39:07.207Z,28.16
2023-06-21T20:41:34.649Z,28.17
2023-06-21T20:44:02.986Z,28.18
2023-06-21T20:46:32.762Z,28.24
2023-06-21T20:49:02.825Z,28.17
2023-06-21T20:51:30.422Z,28.11
2023-06-21T20:53:58.164Z,28.03
2023-06-21T20:56:27.145Z,27.91
2023-06-21T20:58:55.866Z,27.77
2023-06-21T21:01:24.124Z,27.61
2023-06-21T21:03:53.548Z,27.56
2023-06-21T21:06:21.012Z,27.51
2023-06-21T21:08:50.847Z,27.52
2023-06-21T21:11:18.461Z,27.45
2023-06-21T21:13:45.905Z,27.49
2023-06-21T21:16:13.304Z,27.46
2023-06-21T21:18:40.723Z,27.48
2023-06-21T21:21:10.778Z,27.49
2023-06-21T21:23:38.480Z,27.46
2023-06-21T21:26:05.983Z,27.48
2023-06-21T21:28:33.582Z,27.44
2023-06-21T21:31:01.970Z,27.44
2023-06-21T21:33:29.436Z,27.42
2023-06-21T21:35:56.868Z,27.44
2023-06-21T21:38:24.425Z,27.42
2023-06-21T21:40:51.860Z,27.38
2023-06-21T21:43:19.244Z,27.29
2023-06-21T21:45:47.449Z,27.23
2023-06-21T21:48:14.865Z,27.19
2023-06-21T21:50:42.337Z,27.10
2023-06-21T21:53:09.700Z,27.02
2023-06-21T21:55:37.171Z,26.90
2023-06-21T21:58:04.514Z,26.91
2023-06-21T22:00:32.056Z,26.94
2023-06-21T22:02:59.633Z,26.90
2023-06-21T22:05:27.123Z,26.82
2023-06-21T22:07:54.542Z,26.82
2023-06-21T22:10:36.846Z,26.82
2023-06-21T22:13:05.580Z,26.79
2023-06-21T22:15:32.971Z,26.97
2023-06-21T22:18:02.566Z,26.90
2023-06-21T22:20:30.800Z,26.85
2023-06-21T22:22:58.468Z,26.78
2023-06-21T22:25:25.908Z,26.71
2023-06-21T22:27:53.481Z,26.65
2023-06-21T22:30:21.006Z,26.64
2023-06-21T22:32:48.405Z,26.60
2023-06-21T22:35:16.150Z,26.55
2023-06-21T22:37:43.761Z,26.59
2023-06-21T22:40:11.632Z,26.50
2023-06-21T22:42:39.065Z,26.42
2023-06-21T22:45:07.010Z,26.28
2023-06-21T22:47:38.629Z,26.23
2023-06-21T22:50:07.247Z,26.18
2023-06-21T22:52:34.884Z,26.17
2023-06-21T22:55:02.364Z,26.06
2023-06-21T22:57:30.254Z,26.00
2023-06-21T22:59:57.687Z,26.10
2023-06-21T23:02:25.231Z,26.08
2023-06-21T23:04:52.902Z,26.01
2023-06-21T23:07:22.071Z,26.02
2023-06-21T23:09:49.517Z,25.80
2023-06-21T23:12:16.952Z,25.92
2023-06-21T23:14:47.583Z,25.77
2023-06-21T23:17:15.237Z,25.82
2023-06-21T23:19:42.652Z,25.90
2023-06-21T23:22:19.388Z,25.92
2023-06-21T23:24:46.888Z,25.82
2023-06-21T23:27:15.695Z,25.86
2023-06-21T23:29:43.803Z,25.84
2023-06-21T23:32:11.338Z,25.81
2023-06-21T23:34:39.196Z,25.82
2023-06-21T23:37:06.940Z,25.68
2023-06-21T23:39:34.399Z,25.59
2023-06-21T23:42:02.669Z,25.51
2023-06-21T23:44:31.846Z,25.51
2023-06-21T23:46:59.259Z,25.54
2023-06-21T23:49:26.711Z,25.48
2023-06-21T23:51:58.191Z,25.48
2023-06-21T23:54:27.405Z,25.42
2023-06-21T23:56:54.907Z,25.52
2023-06-21T23:59:22.421Z,25.38
